createdAt,value
2022-08-30T00:01:25.450Z,60.81
2022-08-30T00:03:54.970Z,60.61
2022-08-30T00:06:24.501Z,61.13
2022-08-30T00:08:53.183Z,62.03
2022-08-30T00:11:24.876Z,62.83
2022-08-30T00:13:54.541Z,63.93
2022-08-30T00:16:23.843Z,64.98
2022-08-30T00:18:51.683Z,64.63
2022-08-30T00:21:20.002Z,64.55
2022-08-30T00:23:47.845Z,63.99
2022-08-30T00:26:15.608Z,64.34
2022-08-30T00:28:44.717Z,64.25
2022-08-30T00:31:15.178Z,64.76
2022-08-30T00:33:43.360Z,64.78
2022-08-30T00:36:11.120Z,64.99
2022-08-30T00:38:38.871Z,64.92
2022-08-30T00:41:06.959Z,65.78
2022-08-30T00:43:36.847Z,65.58
2022-08-30T00:46:08.250Z,65.48
2022-08-30T00:48:40.751Z,65.19
2022-08-30T00:51:11.323Z,65.23
2022-08-30T00:53:43.950Z,65.23
2022-08-30T00:56:14.426Z,66.32
2022-08-30T00:58:46.829Z,65.26
2022-08-30T01:01:17.196Z,65.61
2022-08-30T01:03:45.446Z,65.30
2022-08-30T01:06:15.587Z,65.49
2022-08-30T01:08:44.114Z,65.41
2022-08-30T01:11:13.835Z,65.27
2022-08-30T01:13:42.043Z,65.57
2022-08-30T01:16:10.340Z,65.70
2022-08-30T01:18:39.811Z,65.61
2022-08-30T01:21:17.881Z,65.64
2022-08-30T01:23:50.231Z,65.42
2022-08-30T01:26:19.208Z,65.13
2022-08-30T01:28:54.721Z,64.15
2022-08-30T01:31:23.241Z,64.35
2022-08-30T01:33:52.110Z,64.04
2022-08-30T01:36:20.989Z,64.63
2022-08-30T01:38:53.353Z,64.47
2022-08-30T01:41:24.101Z,64.70
2022-08-30T01:43:54.726Z,64.64
2022-08-30T01:46:24.728Z,65.00
2022-08-30T01:48:54.557Z,64.93
2022-08-30T01:51:25.090Z,65.20
2022-08-30T01:53:54.880Z,65.45
2022-08-30T01:56:23.077Z,65.87
2022-08-30T01:58:51.393Z,65.84
2022-08-30T02:01:21.662Z,65.64
2022-08-30T02:03:49.895Z,65.41
2022-08-30T02:06:20.410Z,64.82
2022-08-30T02:08:48.830Z,64.08
2022-08-30T02:11:19.274Z,63.80
2022-08-30T02:13:47.563Z,63.76
2022-08-30T02:16:18.067Z,64.39
2022-08-30T02:18:47.070Z,64.41
2022-08-30T02:21:15.849Z,64.58
2022-08-30T02:23:44.000Z,65.54
2022-08-30T02:26:12.149Z,65.29
2022-08-30T02:28:42.743Z,65.62
2022-08-30T02:31:19.546Z,65.80
2022-08-30T02:33:50.089Z,66.20
2022-08-30T02:36:17.934Z,66.46
2022-08-30T02:38:46.211Z,66.42
2022-08-30T02:41:14.004Z,66.36
2022-08-30T02:43:43.102Z,66.30
2022-08-30T02:46:11.121Z,67.17
2022-08-30T02:48:39.529Z,67.27
2022-08-30T02:51:11.101Z,66.85
2022-08-30T02:53:40.080Z,66.67
2022-08-30T02:56:08.774Z,66.95
2022-08-30T02:58:36.954Z,67.47
2022-08-30T03:01:07.173Z,67.33
2022-08-30T03:03:34.969Z,67.31
2022-08-30T03:06:03.552Z,67.67
2022-08-30T03:08:32.196Z,67.77
2022-08-30T03:11:00.050Z,67.38
2022-08-30T03:13:27.990Z,66.99
2022-08-30T03:15:55.717Z,67.19
2022-08-30T03:18:26.532Z,67.43
2022-08-30T03:20:55.028Z,67.29
2022-08-30T03:23:23.626Z,67.44
2022-08-30T03:25:51.536Z,67.50
2022-08-30T03:28:19.285Z,67.63
2022-08-30T03:30:48.064Z,68.08
2022-08-30T03:33:16.071Z,68.03
2022-08-30T03:35:48.072Z,68.55
2022-08-30T03:38:15.757Z,68.36
2022-08-30T03:40:43.932Z,68.32
2022-08-30T03:43:11.847Z,68.38
2022-08-30T03:45:40.633Z,68.61
2022-08-30T03:48:08.474Z,68.45
2022-08-30T03:50:36.846Z,68.31
2022-08-30T03:53:06.067Z,68.10
2022-08-30T03:55:34.286Z,68.08
2022-08-30T03:58:02.080Z,68.01
2022-08-30T04:00:29.921Z,68.20
2022-08-30T04:02:57.647Z,68.45
2022-08-30T04:05:25.550Z,68.76
2022-08-30T04:07:53.246Z,68.86
2022-08-30T04:10:22.615Z,68.78
2022-08-30T04:12:50.897Z,69.58
2022-08-30T04:15:19.882Z,70.06
2022-08-30T04:17:47.931Z,69.71
2022-08-30T04:20:16.347Z,70.16
2022-08-30T04:22:44.089Z,70.28
2022-08-30T04:25:15.663Z,70.34
2022-08-30T04:27:45.954Z,70.29
2022-08-30T04:30:15.530Z,70.39
2022-08-30T04:32:43.419Z,70.12
2022-08-30T04:35:12.074Z,70.29
2022-08-30T04:37:40.289Z,69.82
2022-08-30T04:40:09.540Z,69.89
2022-08-30T04:42:37.710Z,69.76
2022-08-30T04:45:10.891Z,69.46
2022-08-30T04:47:39.884Z,69.30
2022-08-30T04:50:08.992Z,68.87
2022-08-30T04:52:36.729Z,69.05
2022-08-30T04:55:05.222Z,69.35
2022-08-30T04:57:33.267Z,69.47
2022-08-30T05:00:00.981Z,69.56
2022-08-30T05:02:30.263Z,69.54
2022-08-30T05:05:15.563Z,69.05
2022-08-30T05:07:43.339Z,68.13
2022-08-30T05:10:11.742Z,67.03
2022-08-30T05:12:39.802Z,66.11
2022-08-30T05:15:08.571Z,66.39
2022-08-30T05:17:37.758Z,66.31
2022-08-30T05:20:06.547Z,65.36
2022-08-30T05:22:36.841Z,64.78
2022-08-30T05:25:05.118Z,64.43
2022-08-30T05:27:33.244Z,64.45
2022-08-30T05:30:06.330Z,64.44
2022-08-30T05:32:34.067Z,63.99
2022-08-30T05:35:03.195Z,63.82
2022-08-30T05:37:30.882Z,64.37
2022-08-30T05:39:59.274Z,65.07
2022-08-30T05:42:27.081Z,65.77
2022-08-30T05:44:55.732Z,66.08
2022-08-30T05:47:23.811Z,65.87
2022-08-30T05:49:51.766Z,66.22
2022-08-30T05:52:21.211Z,66.06
2022-08-30T05:54:54.367Z,66.22
2022-08-30T05:57:22.621Z,66.23
2022-08-30T05:59:50.300Z,65.45
2022-08-30T06:02:18.272Z,65.13
2022-08-30T06:04:46.019Z,64.92
2022-08-30T06:07:15.753Z,64.11
2022-08-30T06:09:46.296Z,63.88
2022-08-30T06:12:13.983Z,64.02
2022-08-30T06:14:41.686Z,63.33
2022-08-30T06:17:09.436Z,63.47
2022-08-30T06:19:37.411Z,63.42
2022-08-30T06:22:05.337Z,63.68
2022-08-30T06:24:55.840Z,63.60
2022-08-30T06:27:22.151Z,63.88
2022-08-30T06:29:52.272Z,64.23
2022-08-30T06:32:20.004Z,64.41
2022-08-30T06:34:48.286Z,65.20
2022-08-30T06:37:29.129Z,66.15
2022-08-30T06:39:58.023Z,65.77
2022-08-30T06:42:31.920Z,65.20
2022-08-30T06:45:00.311Z,64.57
2022-08-30T06:47:29.111Z,64.96
2022-08-30T06:49:57.899Z,65.28
2022-08-30T06:52:26.405Z,65.31
2022-08-30T06:54:55.319Z,65.55
2022-08-30T06:57:22.998Z,65.51
2022-08-30T06:59:57.318Z,65.47
2022-08-30T07:02:26.120Z,64.90
2022-08-30T07:04:53.933Z,64.54
2022-08-30T07:07:21.693Z,64.61
2022-08-30T07:09:49.386Z,64.06
2022-08-30T07:12:17.389Z,63.65
2022-08-30T07:14:45.153Z,63.74
2022-08-30T07:17:34.709Z,63.69
2022-08-30T07:20:03.211Z,63.92
2022-08-30T07:22:30.988Z,64.07
2022-08-30T07:24:58.741Z,63.99
2022-08-30T07:27:26.467Z,63.82
2022-08-30T07:29:54.172Z,64.11
2022-08-30T07:32:23.251Z,64.37
2022-08-30T07:34:51.749Z,64.12
2022-08-30T07:37:19.707Z,64.48
2022-08-30T07:39:48.164Z,64.62
2022-08-30T07:42:16.165Z,64.32
2022-08-30T07:44:43.963Z,64.08
2022-08-30T07:47:12.239Z,64.13
2022-08-30T07:49:41.296Z,64.25
2022-08-30T07:52:09.014Z,64.25
2022-08-30T07:54:36.875Z,63.93
2022-08-30T07:57:04.646Z,64.04
2022-08-30T07:59:35.580Z,63.82
2022-08-30T08:02:04.148Z,63.89
2022-08-30T08:04:33.169Z,63.46
2022-08-30T08:07:02.287Z,63.48
2022-08-30T08:09:30.035Z,64.40
2022-08-30T08:11:57.759Z,63.84
2022-08-30T08:14:25.466Z,63.95
2022-08-30T08:16:53.596Z,63.31
2022-08-30T08:19:21.262Z,63.72
2022-08-30T08:21:55.702Z,63.56
2022-08-30T08:24:38.262Z,63.60
2022-08-30T08:27:06.317Z,63.30
2022-08-30T08:29:34.163Z,62.91
2022-08-30T08:32:01.877Z,63.58
2022-08-30T08:34:29.616Z,63.08
2022-08-30T08:36:57.518Z,63.15
2022-08-30T08:39:25.227Z,62.70
2022-08-30T08:42:05.007Z,62.68
2022-08-30T08:44:45.073Z,61.05
2022-08-30T08:47:16.413Z,61.20
2022-08-30T08:49:47.474Z,61.68
2022-08-30T08:52:38.214Z,61.65
2022-08-30T08:55:10.785Z,61.85
2022-08-30T08:57:40.191Z,62.07
2022-08-30T09:00:10.148Z,62.23
2022-08-30T09:02:42.661Z,61.82
2022-08-30T09:05:14.579Z,61.89
2022-08-30T09:07:48.080Z,61.70
2022-08-30T09:10:18.346Z,61.84
2022-08-30T09:12:55.719Z,61.30
2022-08-30T09:15:29.685Z,60.81
2022-08-30T09:18:01.362Z,60.40
2022-08-30T09:20:34.058Z,60.29
2022-08-30T09:23:22.585Z,60.17
2022-08-30T09:25:54.762Z,59.73
2022-08-30T09:28:27.008Z,60.02
2022-08-30T09:31:11.890Z,60.13
2022-08-30T09:33:40.179Z,60.22
2022-08-30T09:36:15.739Z,60.40
2022-08-30T09:38:43.464Z,60.60
2022-08-30T09:41:38.005Z,60.08
2022-08-30T09:44:10.806Z,58.49
2022-08-30T09:46:47.184Z,58.42
2022-08-30T09:49:37.800Z,58.01
2022-08-30T09:52:26.253Z,58.28
2022-08-30T09:55:10.822Z,57.94
2022-08-30T09:57:45.996Z,58.03
2022-08-30T10:00:19.567Z,57.92
2022-08-30T10:03:09.166Z,56.21
2022-08-30T10:05:47.511Z,56.43
2022-08-30T10:08:25.104Z,55.38
2022-08-30T10:10:56.046Z,53.83
2022-08-30T10:13:44.193Z,53.95
2022-08-30T10:16:22.744Z,54.56
2022-08-30T10:19:04.194Z,55.30
2022-08-30T10:21:38.165Z,53.96
2022-08-30T10:24:11.365Z,54.83
2022-08-30T10:26:44.527Z,56.40
2022-08-30T10:29:17.426Z,57.12
2022-08-30T10:31:52.343Z,57.32
2022-08-30T10:34:26.680Z,56.94
2022-08-30T10:36:59.202Z,56.31
2022-08-30T10:39:32.919Z,54.99
2022-08-30T10:42:06.375Z,55.30
2022-08-30T10:44:41.337Z,53.18
2022-08-30T10:47:23.841Z,51.37
2022-08-30T10:49:57.198Z,52.47
2022-08-30T10:52:34.189Z,53.13
2022-08-30T10:55:08.494Z,53.07
2022-08-30T10:57:38.502Z,52.59
2022-08-30T11:00:13.907Z,52.12
2022-08-30T11:03:25.144Z,52.34
2022-08-30T11:06:17.210Z,52.80
2022-08-30T11:09:09.741Z,52.75
2022-08-30T11:11:56.727Z,53.41
2022-08-30T11:14:25.925Z,52.49
2022-08-30T11:16:56.444Z,52.45
2022-08-30T11:19:32.188Z,52.39
2022-08-30T11:22:14.110Z,51.26
2022-08-30T11:25:11.377Z,51.33
2022-08-30T11:27:51.796Z,51.53
2022-08-30T11:31:04.401Z,51.50
2022-08-30T11:33:46.126Z,52.04
2022-08-30T11:37:09.725Z,51.03
2022-08-30T11:40:14.177Z,51.84
2022-08-30T11:42:48.008Z,51.44
2022-08-30T11:45:45.046Z,52.45
2022-08-30T11:48:53.491Z,51.75
2022-08-30T11:52:23.715Z,51.16
2022-08-30T11:54:55.739Z,51.04
2022-08-30T11:57:32.234Z,51.22
2022-08-30T12:00:08.795Z,51.90
2022-08-30T12:02:46.773Z,51.43
2022-08-30T12:05:51.319Z,50.77
2022-08-30T12:08:58.003Z,51.20
2022-08-30T12:11:55.027Z,51.19
2022-08-30T12:14:54.469Z,51.86
2022-08-30T12:17:48.166Z,51.59
2022-08-30T12:20:22.438Z,52.23
2022-08-30T12:22:51.161Z,51.68
2022-08-30T12:25:26.350Z,51.52
2022-08-30T12:28:14.109Z,50.77
2022-08-30T12:30:46.465Z,51.07
2022-08-30T12:33:28.993Z,50.97
2022-08-30T12:35:59.301Z,50.88
2022-08-30T12:38:28.352Z,50.14
2022-08-30T12:41:00.197Z,50.53
2022-08-30T12:43:40.259Z,50.42
2022-08-30T12:46:12.793Z,50.88
2022-08-30T12:48:44.757Z,51.08
2022-08-30T12:51:34.874Z,50.50
2022-08-30T12:54:10.270Z,49.99
2022-08-30T12:56:56.830Z,50.41
2022-08-30T12:59:54.141Z,50.61
2022-08-30T13:02:27.259Z,50.84
2022-08-30T13:04:57.254Z,50.29
2022-08-30T13:07:31.078Z,50.31
2022-08-30T13:10:05.048Z,50.05
2022-08-30T13:12:34.962Z,50.59
2022-08-30T13:15:17.635Z,50.42
2022-08-30T13:17:47.694Z,49.68
2022-08-30T13:20:25.862Z,49.19
2022-08-30T13:23:06.794Z,48.23
2022-08-30T13:25:35.458Z,48.54
2022-08-30T13:28:05.407Z,48.41
2022-08-30T13:30:33.888Z,47.44
2022-08-30T13:33:03.406Z,48.28
2022-08-30T13:35:32.646Z,47.62
2022-08-30T13:38:04.121Z,47.71
2022-08-30T13:40:31.942Z,47.59
2022-08-30T13:42:59.676Z,47.00
2022-08-30T13:45:43.190Z,47.00
2022-08-30T13:48:15.282Z,47.01
2022-08-30T13:50:45.388Z,46.54
2022-08-30T13:53:13.274Z,46.75
2022-08-30T13:55:42.537Z,45.15
2022-08-30T13:58:13.273Z,45.37
2022-08-30T14:00:41.683Z,45.74
2022-08-30T14:03:09.404Z,45.02
2022-08-30T14:05:49.533Z,44.06
2022-08-30T14:11:09.283Z,44.38
2022-08-30T14:13:37.445Z,43.68
2022-08-30T14:18:56.938Z,42.53
2022-08-30T14:21:26.544Z,42.15
2022-08-30T14:23:55.938Z,41.49
2022-08-30T14:26:33.196Z,41.86
2022-08-30T14:29:02.468Z,40.29
2022-08-30T14:31:32.745Z,40.68
2022-08-30T14:34:01.871Z,40.33
2022-08-30T14:36:33.190Z,39.74
2022-08-30T14:39:01.674Z,39.94
2022-08-30T14:41:29.517Z,38.35
2022-08-30T14:43:57.261Z,38.46
2022-08-30T14:46:26.723Z,39.59
2022-08-30T14:48:55.229Z,39.26
2022-08-30T14:51:24.503Z,39.27
2022-08-30T14:53:54.606Z,37.58
2022-08-30T14:58:59.748Z,38.34
2022-08-30T15:01:27.201Z,38.03
2022-08-30T15:03:53.598Z,38.36
2022-08-30T15:06:22.281Z,37.88
2022-08-30T15:08:48.682Z,38.47
2022-08-30T15:11:18.654Z,38.43
2022-08-30T15:13:45.918Z,38.66
2022-08-30T15:16:16.103Z,38.41
2022-08-30T15:23:45.504Z,38.93
2022-08-30T15:26:11.855Z,38.01
2022-08-30T15:28:38.678Z,38.78
2022-08-30T15:31:08.970Z,38.05
2022-08-30T15:33:36.362Z,37.72
2022-08-30T15:36:06.278Z,38.93
2022-08-30T15:38:33.097Z,39.08
2022-08-30T15:41:03.468Z,38.66
2022-08-30T15:48:28.571Z,38.70
2022-08-30T15:50:56.795Z,38.30
2022-08-30T15:53:23.385Z,39.00
2022-08-30T15:55:49.937Z,39.39
2022-08-30T15:58:17.266Z,38.48
2022-08-30T16:00:45.137Z,39.40
2022-08-30T16:03:11.769Z,38.90
2022-08-30T16:05:39.096Z,38.58
2022-08-30T16:13:09.449Z,38.97
2022-08-30T16:15:38.507Z,39.19
2022-08-30T16:18:05.507Z,39.10
2022-08-30T16:20:31.967Z,39.47
2022-08-30T16:22:58.256Z,40.00
2022-08-30T16:25:24.847Z,40.30
2022-08-30T16:28:06.167Z,40.04
2022-08-30T16:30:37.028Z,40.30
2022-08-30T16:38:02.100Z,40.52
2022-08-30T16:40:29.183Z,39.40
2022-08-30T16:42:55.705Z,40.09
2022-08-30T16:45:22.425Z,40.68
2022-08-30T16:47:50.369Z,40.51
2022-08-30T16:50:20.783Z,39.77
2022-08-30T16:52:47.324Z,40.15
2022-08-30T16:55:14.701Z,41.48
2022-08-30T17:02:53.532Z,42.30
2022-08-30T17:05:20.771Z,42.74
2022-08-30T17:07:47.417Z,42.02
2022-08-30T17:10:14.375Z,42.65
2022-08-30T17:12:41.884Z,42.13
2022-08-30T17:15:13.693Z,41.31
2022-08-30T17:17:43.335Z,42.77
2022-08-30T17:26:41.917Z,42.66
2022-08-30T17:29:08.465Z,43.52
2022-08-30T17:31:35.232Z,43.83
2022-08-30T17:34:05.020Z,44.59
2022-08-30T17:36:31.614Z,44.41
2022-08-30T17:38:58.855Z,43.54
2022-08-30T17:41:25.537Z,43.64
2022-08-30T17:49:00.952Z,44.59
2022-08-30T17:51:28.680Z,44.54
2022-08-30T17:53:55.046Z,43.48
2022-08-30T17:56:21.690Z,44.47
2022-08-30T17:58:49.697Z,44.92
2022-08-30T18:01:17.736Z,45.12
2022-08-30T18:03:45.573Z,45.12
2022-08-30T18:12:33.957Z,45.02
2022-08-30T18:15:00.824Z,45.29
2022-08-30T18:17:27.689Z,45.23
2022-08-30T18:19:54.045Z,45.29
2022-08-30T18:22:24.542Z,45.81
2022-08-30T18:24:51.088Z,46.02
2022-08-30T18:27:17.735Z,46.41
2022-08-30T18:30:03.968Z,46.76
2022-08-30T18:32:35.286Z,47.42
2022-08-30T18:35:06.759Z,47.67
2022-08-30T18:37:37.444Z,47.27
2022-08-30T18:40:06.506Z,46.75
2022-08-30T18:42:37.893Z,47.19
2022-08-30T18:45:14.498Z,47.35
2022-08-30T18:47:43.628Z,47.73
2022-08-30T18:50:12.485Z,47.71
2022-08-30T18:52:40.478Z,47.73
2022-08-30T18:55:09.223Z,47.63
2022-08-30T18:57:37.166Z,47.73
2022-08-30T19:00:09.612Z,47.42
2022-08-30T19:02:37.707Z,47.91
2022-08-30T19:05:07.032Z,47.04
2022-08-30T19:07:37.486Z,48.03
2022-08-30T19:10:07.258Z,47.84
2022-08-30T19:12:40.710Z,48.38
2022-08-30T19:15:11.766Z,48.63
2022-08-30T19:17:40.399Z,49.08
2022-08-30T19:20:10.074Z,48.84
2022-08-30T19:23:08.554Z,49.43
2022-08-30T19:25:26.934Z,49.41
2022-08-30T19:27:56.965Z,49.74
2022-08-30T19:30:29.915Z,49.63
2022-08-30T19:32:58.221Z,49.34
2022-08-30T19:35:26.108Z,49.22
2022-08-30T19:37:53.949Z,48.68
2022-08-30T19:40:23.059Z,49.08
2022-08-30T19:42:51.507Z,48.70
2022-08-30T19:45:21.750Z,49.55
2022-08-30T19:47:53.336Z,49.82
2022-08-30T19:50:22.496Z,49.68
2022-08-30T19:52:54.237Z,50.46
2022-08-30T19:55:30.284Z,50.30
2022-08-30T19:57:59.646Z,50.34
2022-08-30T20:00:30.668Z,50.66
2022-08-30T20:03:01.944Z,50.98
2022-08-30T20:05:30.280Z,51.31
2022-08-30T20:07:58.246Z,50.89
2022-08-30T20:10:26.528Z,51.54
2022-08-30T20:12:54.438Z,51.54
2022-08-30T20:15:22.489Z,51.59
2022-08-30T20:18:13.575Z,52.17
2022-08-30T20:20:39.776Z,52.28
2022-08-30T20:23:07.526Z,51.97
2022-08-30T20:24:23.738Z,43.32
2022-08-30T20:25:35.999Z,52.14
2022-08-30T20:28:04.437Z,51.97
2022-08-30T20:30:33.278Z,51.96
2022-08-30T20:33:06.903Z,52.70
2022-08-30T20:35:36.394Z,52.29
2022-08-30T20:38:06.523Z,53.25
2022-08-30T20:40:36.001Z,52.94
2022-08-30T20:43:04.232Z,53.06
2022-08-30T20:45:34.191Z,53.18
2022-08-30T20:48:03.111Z,52.89
2022-08-30T20:50:31.149Z,52.69
2022-08-30T20:52:58.884Z,53.04
2022-08-30T20:55:28.114Z,53.10
2022-08-30T21:00:24.717Z,53.02
2022-08-30T21:02:54.620Z,53.41
2022-08-30T21:05:22.433Z,53.45
2022-08-30T21:07:50.135Z,53.39
2022-08-30T21:10:23.096Z,53.85
2022-08-30T21:12:52.803Z,53.76
2022-08-30T21:15:36.711Z,53.57
2022-08-30T21:18:05.929Z,53.94
2022-08-30T21:20:33.818Z,53.64
2022-08-30T21:23:01.483Z,53.89
2022-08-30T21:25:30.959Z,54.46
2022-08-30T21:28:00.354Z,53.84
2022-08-30T21:30:28.094Z,54.31
2022-08-30T21:32:59.803Z,54.63
2022-08-30T21:35:45.978Z,54.72
2022-08-30T21:38:14.247Z,54.86
2022-08-30T21:40:42.094Z,54.98
2022-08-30T21:43:11.289Z,55.13
2022-08-30T21:45:39.427Z,55.23
2022-08-30T21:48:07.887Z,55.18
2022-08-30T21:50:35.987Z,55.51
2022-08-30T21:53:05.748Z,55.64
2022-08-30T21:55:33.419Z,55.65
2022-08-30T21:58:01.194Z,55.95
2022-08-30T22:00:33.572Z,55.59
2022-08-30T22:03:01.832Z,55.91
2022-08-30T22:05:29.612Z,55.89
2022-08-30T22:07:57.266Z,55.94
2022-08-30T22:10:25.279Z,56.15
2022-08-30T22:12:53.000Z,56.37
2022-08-30T22:15:20.826Z,56.53
2022-08-30T22:17:49.931Z,55.91
2022-08-30T22:20:18.645Z,56.31
2022-08-30T22:22:46.712Z,56.58
2022-08-30T22:25:14.667Z,56.51
2022-08-30T22:27:42.363Z,56.84
2022-08-30T22:30:11.130Z,56.84
2022-08-30T22:32:38.870Z,57.08
2022-08-30T22:35:09.222Z,56.78
2022-08-30T22:37:36.940Z,57.00
2022-08-30T22:40:05.751Z,57.35
2022-08-30T22:47:34.818Z,57.79
2022-08-30T22:50:01.091Z,57.67
2022-08-30T22:52:27.395Z,57.66
2022-08-30T22:54:53.783Z,57.58
2022-08-30T22:57:23.132Z,57.74
2022-08-30T22:59:51.138Z,57.85
2022-08-30T23:02:17.556Z,58.23
2022-08-30T23:04:45.037Z,58.76
2022-08-30T23:12:15.338Z,58.36
2022-08-30T23:14:41.677Z,58.39
2022-08-30T23:17:08.065Z,58.61
2022-08-30T23:19:34.325Z,58.58
2022-08-30T23:22:01.110Z,58.26
2022-08-30T23:24:46.308Z,58.28
2022-08-30T23:27:34.749Z,58.74
2022-08-30T23:30:19.501Z,58.24
2022-08-30T23:38:25.945Z,58.93
2022-08-30T23:41:10.187Z,58.67
2022-08-30T23:43:55.210Z,58.79
2022-08-30T23:46:40.586Z,58.68
2022-08-30T23:49:24.951Z,58.76
2022-08-30T23:52:09.257Z,59.17
2022-08-30T23:54:57.162Z,59.42
